Estación Meteorológica Peña el Pijo (Robertgarden) [ 10/21/17 19:50:52 CEST ]

Fecha Hora Presion(HPa) Temp (°C) Humedad % Rocio (°C) Viento ( m/s) Direccion Lluvia 1Hora(mm) Lluvia 24H(mm) LLuvia Total(mm)
2017-Oct-11 01:01:25 1015.200 9.8 73 5.2         1457.65
2017-Oct-11 02:01:37 1015.200 9.3 71 4.3         1457.65
2017-Oct-11 03:04:07 1015.200 8.9 70 3.7         1457.65
2017-Oct-11 04:01:14 1014.800 7.9 70 2.8         1457.65
2017-Oct-11 05:01:22 1014.900 7.3 71 2.4         1457.65
2017-Oct-11 06:01:31 1015.100 6.8 73 2.3         1457.65
2017-Oct-11 07:01:29 1015.100 6.7 73 2.2         1457.65
2017-Oct-11 08:01:30 1015.200 6.1 75 2.0         1457.65
2017-Oct-11 09:01:32 1015.600 6.4 77 2.6         1457.65
2017-Oct-11 10:01:54 1016.000 14.6 69 9.0         1457.65
2017-Oct-11 11:01:46 1015.900 22.9 46 10.6         1457.65
2017-Oct-11 12:01:49 1015.800 28.3 29 8.5         1457.65
2017-Oct-11 13:01:59 1015.600 27.6 24 5.0         1457.65
2017-Oct-11 14:01:56 1015.000 27.6 23 4.4         1457.65
2017-Oct-11 15:01:43 1014.600 28.4 23 5.1         1457.65
2017-Oct-11 16:02:05 1014.200 29.2 22 5.1         1457.65
2017-Oct-11 17:01:51 1014.200 27.0 28 6.8         1457.65
2017-Oct-11 18:01:37 1014.900 23.9 34 7.0         1457.65
2017-Oct-11 19:01:51 1015.100 22.3 39 7.6         1457.65
2017-Oct-11 20:01:43 1015.900 19.2 45 6.9         1457.65
2017-Oct-11 21:01:39 1016.600 15.9 51 5.8         1457.65
2017-Oct-11 22:01:36 1017.200 13.0 58 4.9         1457.65
2017-Oct-11 23:01:37 1017.900 11.9 60 4.4         1457.65

Temperatura Máxima:29°    Temperatura Mínima:
Presión Máxima:1017.900 Hpa    Presión Mínima:1014.200 Hpa


Volver